Time;durP1;ratioP1;P1;durP2;ratioP2;P2;SDS_P1;SDS_P2;PMS_P1;PMS_P2;Temp;Humidity;BMP_temperature;BMP_pressure;BME280_temperature;BME280_humidity;BME280_pressure;Samples;Min_cycle;Max_cycle;Signal;HPM_P1;HPM_P2
2023/08/02 00:05:21;;;;;;;1.33;0.60;;;;;;;;;;20866540;28;20232;-71
2023/08/02 00:15:23;;;;;;;2.10;0.50;;;;;;;;;;20744180;28;20204;-70
2023/08/02 00:25:25;;;;;;;0.87;0.50;;;;;;;;;;20741406;28;20237;-70
2023/08/02 00:35:27;;;;;;;1.00;0.53;;;;;;;;;;20765748;28;20299;-70
2023/08/02 00:45:29;;;;;;;2.10;0.50;;;;;;;;;;20724271;28;20225;-70
2023/08/02 00:55:33;;;;;;;2.17;0.60;;;;;;;;;;20777923;28;20220;-70
2023/08/02 01:05:36;;;;;;;0.73;0.50;;;;;;;;;;20719981;28;20278;-71
2023/08/02 01:15:38;;;;;;;1.27;0.57;;;;;;;;;;20780063;28;20286;-70
2023/08/02 01:25:42;;;;;;;0.60;0.47;;;;;;;;;;20725335;28;20224;-71
2023/08/02 01:35:43;;;;;;;1.57;0.50;;;;;;;;;;20748329;28;20222;-70
2023/08/02 01:45:45;;;;;;;0.67;0.43;;;;;;;;;;20717923;28;20223;-70
2023/08/02 01:55:47;;;;;;;0.30;0.30;;;;;;;;;;20769728;28;20770;-70
2023/08/02 02:05:53;;;;;;;1.20;0.57;;;18.60;99.90;;;;;;20737087;28;20300;-69
2023/08/02 02:15:55;;;;;;;0.90;0.50;;;;;;;;;;20764945;28;20231;-69
2023/08/02 02:25:57;;;;;;;0.50;0.40;;;;;;;;;;20794768;28;20294;-69
2023/08/02 02:35:59;;;;;;;0.83;0.50;;;;;;;;;;20877611;28;20224;-69
2023/08/02 02:46:01;;;;;;;0.67;0.50;;;;;;;;;;20816933;28;20748;-69
2023/08/02 02:56:03;;;;;;;1.07;0.40;;;;;;;;;;20779905;28;20780;-69
2023/08/02 03:06:05;;;;;;;1.47;0.40;;;;;;;;;;20768002;28;20233;-69
2023/08/02 03:16:07;;;;;;;1.33;0.57;;;;;;;;;;20808904;28;20219;-69
2023/08/02 03:26:09;;;;;;;1.00;0.43;;;;;;;;;;20770729;28;20788;-68
2023/08/02 03:36:10;;;;;;;0.77;0.50;;;;;;;;;;20852803;22;20225;-83
2023/08/02 03:46:12;;;;;;;1.07;0.50;;;;;;;;;;20793834;28;20258;-83
2023/08/02 03:56:14;;;;;;;0.90;0.50;;;;;;;;;;20767104;28;20264;-87
2023/08/02 04:06:15;;;;;;;0.50;0.37;;;;;;;;;;20785871;28;20230;-86
2023/08/02 04:16:17;;;;;;;1.37;0.70;;;;;;;;;;20794739;28;20227;-88
2023/08/02 04:26:19;;;;;;;1.70;0.90;;;;;;;;;;20839289;28;20276;-86
2023/08/02 04:36:21;;;;;;;0.87;0.50;;;;;;;;;;20799454;28;20277;-87
2023/08/02 04:46:25;;;;;;;1.37;0.77;;;;;;;;;;20791946;28;20304;-88
2023/08/02 04:56:30;;;;;;;1.00;0.40;;;;;;;;;;20843597;28;20754;-86
2023/08/02 05:06:32;;;;;;;1.00;0.60;;;;;;;;;;20844970;28;20699;-85
2023/08/02 05:16:36;;;;;;;1.20;0.50;;;;;;;;;;20811714;28;20203;-85
2023/08/02 05:26:38;;;;;;;0.77;0.60;;;;;;;;;;20782108;28;20694;-84
2023/08/02 05:36:41;;;;;;;1.40;0.50;;;;;;;;;;20780280;28;20218;-84
2023/08/02 05:46:44;;;;;;;3.00;0.60;;;;;;;;;;20817745;28;20245;-84
2023/08/02 05:56:46;;;;;;;1.10;0.63;;;;;;;;;;20792005;28;20210;-85
2023/08/02 06:06:48;;;;;;;0.93;0.57;;;;;;;;;;20792302;28;20228;-85
2023/08/02 06:16:50;;;;;;;0.80;0.50;;;;;;;;;;20768141;28;20276;-84
2023/08/02 06:26:51;;;;;;;1.10;0.40;;;;;;;;;;20797627;28;20288;-84
2023/08/02 06:36:53;;;;;;;1.77;0.60;;;;;;;;;;20784979;28;20798;-85
2023/08/02 06:46:54;;;;;;;0.70;0.60;;;;;;;;;;20798575;28;20230;-86
2023/08/02 06:56:56;;;;;;;1.03;0.50;;;;;;;;;;20871303;28;20313;-85
2023/08/02 07:06:58;;;;;;;1.37;0.50;;;;;;;;;;20799255;28;20210;-85
2023/08/02 07:17:00;;;;;;;0.67;0.57;;;;;;;;;;20794697;28;20246;-87
2023/08/02 07:27:09;;;;;;;1.40;0.70;;;;;;;;;;20796212;28;20778;-86
2023/08/02 07:37:14;;;;;;;3.70;0.70;;;;;;;;;;20774641;28;20920;-85
2023/08/02 07:47:16;;;;;;;0.57;0.40;;;;;;;;;;20775483;28;20239;-87
2023/08/02 07:57:18;;;;;;;0.53;0.40;;;;;;;;;;20765131;28;20214;-86
2023/08/02 08:07:19;;;;;;;0.60;0.40;;;;;;;;;;20853250;28;20281;-84
2023/08/02 08:17:21;;;;;;;0.83;0.50;;;;;;;;;;20766791;28;20215;-83
2023/08/02 08:27:23;;;;;;;0.60;0.40;;;;;;;;;;20813238;28;20228;-84
2023/08/02 08:37:25;;;;;;;0.97;0.60;;;;;;;;;;20753017;28;20234;-85
2023/08/02 08:47:28;;;;;;;0.83;0.60;;;;;;;;;;20771114;28;20269;-86
2023/08/02 08:57:30;;;;;;;0.50;0.40;;;;;;;;;;20778166;28;20215;-87
2023/08/02 09:07:32;;;;;;;0.97;0.70;;;18.10;99.90;;;;;;20761711;28;20230;-86
2023/08/02 09:17:47;;;;;;;1.20;0.70;;;;;;;;;;20773221;28;20219;-84
2023/08/02 09:27:49;;;;;;;0.50;0.40;;;;;;;;;;20771980;28;20230;-84
2023/08/02 09:37:50;;;;;;;1.40;0.50;;;;;;;;;;20786411;28;20294;-84
2023/08/02 09:47:52;;;;;;;0.97;0.53;;;;;;;;;;20831729;28;20287;-84
2023/08/02 09:57:54;;;;;;;1.33;0.60;;;;;;;;;;20802026;28;20640;-85
2023/08/02 10:07:59;;;;;;;1.33;0.73;;;;;;;;;;20744803;28;20296;-88
2023/08/02 10:18:02;;;;;;;0.73;0.53;;;;;;;;;;20785547;28;20504;-85
2023/08/02 10:28:05;;;;;;;1.00;0.70;;;;;;;;;;20820647;28;20239;-86
2023/08/02 10:38:07;;;;;;;1.03;0.40;;;;;;;;;;20789972;28;20321;-86
2023/08/02 10:48:34;;;;;;;0.90;0.50;;;;;;;;;;20801620;28;20238;-86
2023/08/02 10:58:45;;;;;;;0.63;0.40;;;;;;;;;;20804348;28;20624;-87
2023/08/02 11:08:47;;;;;;;0.60;0.40;;;;;;;;;;20776957;28;20230;-86
2023/08/02 11:18:50;;;;;;;1.17;0.60;;;;;;;;;;20799096;28;20297;-86
2023/08/02 11:28:53;;;;;;;0.70;0.40;;;;;;;;;;20808199;28;20231;-85
2023/08/02 11:38:55;;;;;;;0.80;0.50;;;;;;;;;;20830885;28;20276;-86
2023/08/02 11:49:09;;;;;;;0.90;0.60;;;;;;;;;;20800362;28;20233;-89
2023/08/02 11:59:11;;;;;;;0.90;0.50;;;;;;;;;;20808581;28;20227;-88
2023/08/02 12:09:21;;;;;;;1.07;0.77;;;;;;;;;;20789770;28;20615;-90
2023/08/02 12:19:40;;;;;;;1.00;0.60;;;;;;;;;;20741367;28;20229;-89
2023/08/02 12:29:42;;;;;;;1.20;0.80;;;;;;;;;;20740409;28;20263;-87
2023/08/02 12:39:44;;;;;;;0.83;0.70;;;;;;;;;;20862096;28;20234;-88
2023/08/02 12:49:46;;;;;;;1.63;0.90;;;;;;;;;;20823640;28;20234;-87
2023/08/02 12:59:50;;;;;;;0.90;0.70;;;;;;;;;;20827746;28;20253;-85
2023/08/02 13:09:56;;;;;;;1.40;0.90;;;;;;;;;;20813968;28;20239;-86
2023/08/02 13:19:58;;;;;;;2.03;1.00;;;;;;;;;;20797554;28;20272;-84
2023/08/02 13:30:00;;;;;;;1.70;1.07;;;;;;;;;;20831452;28;20307;-84
2023/08/02 13:40:02;;;;;;;1.63;1.00;;;;;;;;;;20799255;28;20261;-83
2023/08/02 13:50:05;;;;;;;1.80;1.37;;;20.00;99.90;;;;;;20788805;28;20702;-85
2023/08/02 14:00:07;;;;;;;2.83;1.20;;;;;;;;;;20779483;28;20287;-83
2023/08/02 14:10:09;;;;;;;1.50;0.90;;;;;;;;;;20770470;28;20238;-84
2023/08/02 14:20:11;;;;;;;1.30;1.00;;;;;;;;;;20788385;28;20969;-83
2023/08/02 14:30:13;;;;;;;4.47;1.20;;;;;;;;;;20798942;28;20237;-82
2023/08/02 14:40:15;;;;;;;1.60;0.80;;;;;;;;;;20757116;28;20295;-88
2023/08/02 14:50:17;;;;;;;1.20;0.60;;;;;;;;;;20788757;28;20237;-84
2023/08/02 15:00:19;;;;;;;8.67;5.50;;;;;;;;;;20780243;28;20614;-85
2023/08/02 15:10:21;;;;;;;5.80;3.23;;;;;;;;;;20821142;28;20641;-86
2023/08/02 15:20:24;;;;;;;7.90;4.30;;;;;;;;;;20816134;28;20682;-85
2023/08/02 15:30:25;;;;;;;2.30;1.40;;;;;;;;;;20775422;28;20238;-85
2023/08/02 15:40:27;;;;;;;2.40;1.40;;;;;;;;;;20751534;28;20239;-84
2023/08/02 15:50:29;;;;;;;1.53;1.10;;;;;;;;;;20774031;28;20244;-85
2023/08/02 16:00:31;;;;;;;0.83;0.63;;;;;;;;;;20819171;28;20245;-83
2023/08/02 16:10:33;;;;;;;1.20;0.60;;;;;;;;;;20805448;28;20237;-85
2023/08/02 16:20:34;;;;;;;1.23;0.60;;;;;;;;;;20764245;28;20213;-85
2023/08/02 16:30:36;;;;;;;0.80;0.50;;;;;;;;;;20806798;28;20263;-85
2023/08/02 16:40:38;;;;;;;2.83;0.50;;;;;;;;;;20768730;28;20233;-85
2023/08/02 16:50:40;;;;;;;1.13;0.40;;;;;;;;;;20798252;28;20232;-85
2023/08/02 17:00:41;;;;;;;2.27;0.50;;;;;;;;;;20777005;28;20218;-84
2023/08/02 17:10:43;;;;;;;0.80;0.50;;;;;;;;;;20744616;28;20305;-85
2023/08/02 17:20:45;;;;;;;0.40;0.30;;;;;;;;;;20757575;28;20242;-86
2023/08/02 17:30:47;;;;;;;0.40;0.23;;;;;;;;;;20799750;28;20238;-86
2023/08/02 17:40:49;;;;;;;0.40;0.30;;;;;;;;;;20739665;28;20250;-86
2023/08/02 17:50:55;;;;;;;0.50;0.30;;;;;;;;;;20770907;28;20290;-85
2023/08/02 18:01:11;;;;;;;0.30;0.30;;;;;;;;;;20782704;28;20230;-86
2023/08/02 18:11:13;;;;;;;0.50;0.23;;;;;;;;;;20786595;28;20226;-86
2023/08/02 18:21:15;;;;;;;0.80;0.40;;;;;;;;;;20791416;28;20372;-86
2023/08/02 18:31:18;;;;;;;0.43;0.30;;;;;;;;;;20844570;28;20308;-87
2023/08/02 18:41:20;;;;;;;2.60;0.67;;;;;;;;;;20798500;28;20245;-85
2023/08/02 18:51:23;;;;;;;0.60;0.60;;;;;;;;;;20774250;28;20292;-87
2023/08/02 19:01:24;;;;;;;1.00;0.40;;;;;;;;;;20801090;28;20226;-86
2023/08/02 19:11:54;;;;;;;1.53;0.57;;;;;;;;;;20801737;28;20232;-88
2023/08/02 19:22:41;;;;;;;2.70;0.40;;;;;;;;;;20856888;28;20756;-88
2023/08/02 19:33:48;;;;;;;2.10;0.57;;;20.10;99.90;;;;;;20821685;28;20699;-89
2023/08/02 19:44:10;;;;;;;1.50;0.50;;;;;;;;;;20907869;22;20272;-69
2023/08/02 19:54:13;;;;;;;2.07;0.90;;;;;;;;;;20944370;28;20237;-68
2023/08/02 20:04:16;;;;;;;1.77;0.63;;;;;;;;;;20947181;28;20297;-68
2023/08/02 20:14:19;;;;;;;1.20;0.47;;;;;;;;;;20914534;28;20276;-68
2023/08/02 20:24:22;;;;;;;1.63;0.80;;;;;;;;;;20933023;28;20208;-67
2023/08/02 20:34:25;;;;;;;1.20;0.40;;;;;;;;;;20948474;28;20291;-67
2023/08/02 20:44:27;;;;;;;1.33;0.57;;;;;;;;;;20950316;28;20224;-67
2023/08/02 20:54:29;;;;;;;1.60;0.70;;;;;;;;;;20948835;28;20279;-68
2023/08/02 21:04:31;;;;;;;4.03;1.03;;;;;;;;;;20934627;28;20213;-69
2023/08/02 21:14:33;;;;;;;3.60;0.93;;;;;;;;;;20916620;28;20233;-67
2023/08/02 21:24:35;;;;;;;1.80;0.93;;;;;;;;;;20947806;28;20257;-70
2023/08/02 21:34:38;;;;;;;1.30;0.53;;;;;;;;;;20964797;28;20293;-68
2023/08/02 21:44:39;;;;;;;4.03;1.03;;;;;;;;;;20916907;28;20232;-71
2023/08/02 21:54:47;;;;;;;3.83;0.90;;;;;;;;;;20936824;28;20227;-69
2023/08/02 22:04:50;;;;;;;2.07;0.80;;;;;;;;;;20964346;28;20564;-68
2023/08/02 22:15:01;;;;;;;3.40;0.93;;;;;;;;;;20946534;28;20242;-68
2023/08/02 22:25:03;;;;;;;2.53;0.80;;;;;;;;;;20958147;28;20798;-68
2023/08/02 22:35:05;;;;;;;2.50;0.70;;;19.70;99.90;;;;;;20938828;28;20287;-69
2023/08/02 22:45:07;;;;;;;1.83;0.67;;;;;;;;;;20960652;28;20229;-68
2023/08/02 22:55:13;;;;;;;1.57;0.47;;;;;;;;;;20959765;28;20249;-70
2023/08/02 23:05:21;;;;;;;2.33;0.50;;;19.80;99.90;;;;;;20943641;28;20262;-69
2023/08/02 23:15:23;;;;;;;1.77;0.60;;;;;;;;;;20974451;28;20273;-68
2023/08/02 23:25:25;;;;;;;0.93;0.50;;;;;;;;;;20957584;28;20227;-69
2023/08/02 23:35:29;;;;;;;2.87;0.90;;;19.80;99.90;;;;;;20936849;28;20276;-69
2023/08/02 23:45:31;;;;;;;2.13;0.57;;;;;;;;;;20939381;28;20216;-68
2023/08/02 23:55:33;;;;;;;3.47;0.70;;;;;;;;;;20927764;28;20827;-71
